sensor_id;sensor_type;location;lat;lon;timestamp;pressure;altitude;pressure_sealevel;temperature;humidity
74973;BME280;63529;56.320;43.990;2023-02-21T00:01:48;97498.13;;;-10.76;62.47
74973;BME280;63529;56.320;43.990;2023-02-21T00:04:33;97501.53;;;-10.76;62.84
74973;BME280;63529;56.320;43.990;2023-02-21T00:07:18;97500.34;;;-10.73;63.06
74973;BME280;63529;56.320;43.990;2023-02-21T00:10:03;97496.97;;;-10.74;62.87
74973;BME280;63529;56.320;43.990;2023-02-21T00:12:48;97495.81;;;-10.71;63.07
74973;BME280;63529;56.320;43.990;2023-02-21T00:15:33;97493.03;;;-10.70;63.12
74973;BME280;63529;56.320;43.990;2023-02-21T00:18:18;97493.28;;;-10.64;62.77
74973;BME280;63529;56.320;43.990;2023-02-21T00:21:02;97490.97;;;-10.59;63.23
74973;BME280;63529;56.320;43.990;2023-02-21T00:23:47;97493.53;;;-10.59;62.99
74973;BME280;63529;56.320;43.990;2023-02-21T00:26:31;97481.09;;;-10.56;62.86
74973;BME280;63529;56.320;43.990;2023-02-21T00:29:16;97479.72;;;-10.52;63.06
74973;BME280;63529;56.320;43.990;2023-02-21T00:32:01;97482.91;;;-10.50;62.95
74973;BME280;63529;56.320;43.990;2023-02-21T00:34:46;97487.50;;;-10.45;63.12
74973;BME280;63529;56.320;43.990;2023-02-21T00:37:30;97485.56;;;-10.43;62.95
74973;BME280;63529;56.320;43.990;2023-02-21T00:40:15;97486.16;;;-10.41;62.82
74973;BME280;63529;56.320;43.990;2023-02-21T00:43:00;97475.84;;;-10.41;62.70
74973;BME280;63529;56.320;43.990;2023-02-21T00:45:45;97475.66;;;-10.40;62.85
74973;BME280;63529;56.320;43.990;2023-02-21T00:48:30;97482.41;;;-10.38;62.85
74973;BME280;63529;56.320;43.990;2023-02-21T00:51:15;97477.25;;;-10.38;62.51
74973;BME280;63529;56.320;43.990;2023-02-21T00:54:00;97470.31;;;-10.38;62.75
74973;BME280;63529;56.320;43.990;2023-02-21T00:56:45;97460.38;;;-10.41;62.54
74973;BME280;63529;56.320;43.990;2023-02-21T00:59:29;97471.47;;;-10.41;62.34
74973;BME280;63529;56.320;43.990;2023-02-21T01:02:14;97460.72;;;-10.44;62.49
74973;BME280;63529;56.320;43.990;2023-02-21T01:04:58;97460.72;;;-10.44;62.44
74973;BME280;63529;56.320;43.990;2023-02-21T01:07:42;97457.38;;;-10.45;62.49
74973;BME280;63529;56.320;43.990;2023-02-21T01:10:27;97470.88;;;-10.43;62.25
74973;BME280;63529;56.320;43.990;2023-02-21T01:13:11;97466.13;;;-10.39;62.74
74973;BME280;63529;56.320;43.990;2023-02-21T01:15:56;97464.16;;;-10.37;62.80
74973;BME280;63529;56.320;43.990;2023-02-21T01:18:40;97465.16;;;-10.38;62.48
74973;BME280;63529;56.320;43.990;2023-02-21T01:21:25;97464.97;;;-10.36;62.24
74973;BME280;63529;56.320;43.990;2023-02-21T01:24:12;97468.34;;;-10.36;62.36
74973;BME280;63529;56.320;43.990;2023-02-21T01:26:57;97461.56;;;-10.37;62.23
74973;BME280;63529;56.320;43.990;2023-02-21T01:29:41;97466.38;;;-10.34;62.45
74973;BME280;63529;56.320;43.990;2023-02-21T01:32:26;97461.03;;;-10.32;62.36
74973;BME280;63529;56.320;43.990;2023-02-21T01:35:10;97466.63;;;-10.29;62.40
74973;BME280;63529;56.320;43.990;2023-02-21T01:37:56;97460.47;;;-10.28;62.50
74973;BME280;63529;56.320;43.990;2023-02-21T01:40:40;97453.72;;;-10.29;62.44
74973;BME280;63529;56.320;43.990;2023-02-21T01:43:26;97446.34;;;-10.32;62.42
74973;BME280;63529;56.320;43.990;2023-02-21T01:46:14;97452.50;;;-10.33;62.00
74973;BME280;63529;56.320;43.990;2023-02-21T01:49:16;97449.31;;;-10.35;62.16
74973;BME280;63529;56.320;43.990;2023-02-21T01:52:03;97455.47;;;-10.36;62.16
74973;BME280;63529;56.320;43.990;2023-02-21T01:54:50;97452.88;;;-10.36;62.14
74973;BME280;63529;56.320;43.990;2023-02-21T01:57:38;97451.91;;;-10.35;62.29
74973;BME280;63529;56.320;43.990;2023-02-21T02:00:23;97456.06;;;-10.34;62.26
74973;BME280;63529;56.320;43.990;2023-02-21T02:03:10;97455.25;;;-10.34;62.12
74973;BME280;63529;56.320;43.990;2023-02-21T02:05:59;97446.75;;;-10.35;62.37
74973;BME280;63529;56.320;43.990;2023-02-21T02:08:45;97449.50;;;-10.36;62.21
74973;BME280;63529;56.320;43.990;2023-02-21T02:35:12;97445.16;;;-10.36;62.33
74973;BME280;63529;56.320;43.990;2023-02-21T02:44:09;97425.31;;;-10.35;62.52
74973;BME280;63529;56.320;43.990;2023-02-21T02:46:33;97424.53;;;-10.36;62.61
74973;BME280;63529;56.320;43.990;2023-02-21T02:49:22;97426.31;;;-10.36;62.53
74973;BME280;63529;56.320;43.990;2023-02-21T02:51:48;97426.31;;;-10.36;62.54
74973;BME280;63529;56.320;43.990;2023-02-21T02:54:16;97426.31;;;-10.36;62.33
74973;BME280;63529;56.320;43.990;2023-02-21T02:56:42;97420.31;;;-10.37;62.09
74973;BME280;63529;56.320;43.990;2023-02-21T02:59:16;97420.31;;;-10.37;62.27
74973;BME280;63529;56.320;43.990;2023-02-21T03:07:11;97414.34;;;-10.44;62.20
74973;BME280;63529;56.320;43.990;2023-02-21T03:13:07;97414.34;;;-10.44;62.06
74973;BME280;63529;56.320;43.990;2023-02-21T03:15:46;97409.38;;;-10.46;62.10
74973;BME280;63529;56.320;43.990;2023-02-21T03:18:30;97420.13;;;-10.42;62.49
74973;BME280;63529;56.320;43.990;2023-02-21T03:21:01;97412.00;;;-10.39;62.41
74973;BME280;63529;56.320;43.990;2023-02-21T03:23:30;97419.53;;;-10.37;62.11
74973;BME280;63529;56.320;43.990;2023-02-21T03:26:01;97414.22;;;-10.36;62.34
74973;BME280;63529;56.320;43.990;2023-02-21T03:28:30;97413.22;;;-10.35;62.44
74973;BME280;63529;56.320;43.990;2023-02-21T03:30:58;97412.81;;;-10.32;62.62
74973;BME280;63529;56.320;43.990;2023-02-21T03:33:25;97416.19;;;-10.31;62.07
74973;BME280;63529;56.320;43.990;2023-02-21T03:35:51;97410.50;;;-10.27;62.24
74973;BME280;63529;56.320;43.990;2023-02-21T03:38:18;97421.41;;;-10.25;62.60
74973;BME280;63529;56.320;43.990;2023-02-21T03:40:44;97410.28;;;-10.25;62.42
74973;BME280;63529;56.320;43.990;2023-02-21T03:43:10;97405.75;;;-10.23;61.98
74973;BME280;63529;56.320;43.990;2023-02-21T03:45:48;97411.47;;;-10.21;62.40
74973;BME280;63529;56.320;43.990;2023-02-21T03:48:18;97406.31;;;-10.21;61.85
74973;BME280;63529;56.320;43.990;2023-02-21T03:50:44;97399.19;;;-10.19;62.18
74973;BME280;63529;56.320;43.990;2023-02-21T03:53:11;97403.34;;;-10.18;62.11
74973;BME280;63529;56.320;43.990;2023-02-21T03:55:40;97399.00;;;-10.18;62.19
74973;BME280;63529;56.320;43.990;2023-02-21T03:58:12;97403.34;;;-10.18;61.73
74973;BME280;63529;56.320;43.990;2023-02-21T04:00:39;97410.31;;;-10.19;61.76
74973;BME280;63529;56.320;43.990;2023-02-21T04:03:05;97399.19;;;-10.19;61.87
74973;BME280;63529;56.320;43.990;2023-02-21T04:05:37;97402.75;;;-10.20;61.74
74973;BME280;63529;56.320;43.990;2023-02-21T04:08:04;97406.94;;;-10.19;61.88
74973;BME280;63529;56.320;43.990;2023-02-21T04:10:31;97402.75;;;-10.20;62.17
74973;BME280;63529;56.320;43.990;2023-02-21T04:12:57;97409.31;;;-10.18;61.93
74973;BME280;63529;56.320;43.990;2023-02-21T04:15:24;97395.63;;;-10.18;61.66
74973;BME280;63529;56.320;43.990;2023-02-21T04:17:50;97413.31;;;-10.15;61.61
74973;BME280;63529;56.320;43.990;2023-02-21T04:20:17;97401.78;;;-10.19;62.07
74973;BME280;63529;56.320;43.990;2023-02-21T04:22:50;97404.56;;;-10.14;61.74
74973;BME280;63529;56.320;43.990;2023-02-21T04:25:17;97402.78;;;-10.14;61.90
74973;BME280;63529;56.320;43.990;2023-02-21T04:27:50;97404.56;;;-10.14;61.66
74973;BME280;63529;56.320;43.990;2023-02-21T04:30:17;97408.94;;;-10.15;61.70
74973;BME280;63529;56.320;43.990;2023-02-21T04:32:43;97407.34;;;-10.16;61.97
74973;BME280;63529;56.320;43.990;2023-02-21T04:35:12;97407.94;;;-10.14;61.65
74973;BME280;63529;56.320;43.990;2023-02-21T04:37:39;97401.59;;;-10.11;61.55
74973;BME280;63529;56.320;43.990;2023-02-21T04:40:07;97397.66;;;-10.07;61.71
74973;BME280;63529;56.320;43.990;2023-02-21T04:42:34;97406.41;;;-10.08;61.85
74973;BME280;63529;56.320;43.990;2023-02-21T04:45:01;97403.44;;;-10.05;61.63
74973;BME280;63529;56.320;43.990;2023-02-21T04:47:29;97405.84;;;-10.03;61.46
74973;BME280;63529;56.320;43.990;2023-02-21T04:49:55;97403.84;;;-10.01;61.69
74973;BME280;63529;56.320;43.990;2023-02-21T04:52:21;97406.25;;;-10.00;61.51
74973;BME280;63529;56.320;43.990;2023-02-21T04:54:47;97412.63;;;-9.96;61.58
74973;BME280;63529;56.320;43.990;2023-02-21T04:57:15;97404.09;;;-9.96;61.23
74973;BME280;63529;56.320;43.990;2023-02-21T04:59:41;97399.13;;;-9.91;61.36
74973;BME280;63529;56.320;43.990;2023-02-21T05:02:08;97399.53;;;-9.88;61.22
74973;BME280;63529;56.320;43.990;2023-02-21T05:04:35;97401.56;;;-9.83;61.30
74973;BME280;63529;56.320;43.990;2023-02-21T05:07:01;97403.53;;;-9.78;61.19
74973;BME280;63529;56.320;43.990;2023-02-21T05:09:27;97393.25;;;-9.72;61.16
74973;BME280;63529;56.320;43.990;2023-02-21T05:11:54;97386.94;;;-9.63;61.31
74973;BME280;63529;56.320;43.990;2023-02-21T05:14:20;97384.38;;;-9.56;60.94
74973;BME280;63529;56.320;43.990;2023-02-21T05:16:48;97382.41;;;-9.47;61.20
74973;BME280;63529;56.320;43.990;2023-02-21T05:19:21;97382.63;;;-9.36;60.88
74973;BME280;63529;56.320;43.990;2023-02-21T05:21:56;97376.50;;;-9.28;60.72
74973;BME280;63529;56.320;43.990;2023-02-21T05:24:26;97378.50;;;-9.17;60.57
74973;BME280;63529;56.320;43.990;2023-02-21T05:26:53;97375.53;;;-9.07;60.57
74973;BME280;63529;56.320;43.990;2023-02-21T05:29:19;97378.31;;;-8.95;60.37
74973;BME280;63529;56.320;43.990;2023-02-21T05:31:50;97369.19;;;-8.85;60.03
74973;BME280;63529;56.320;43.990;2023-02-21T05:34:17;97370.19;;;-8.72;60.02
74973;BME280;63529;56.320;43.990;2023-02-21T05:36:45;97366.78;;;-8.60;59.71
74973;BME280;63529;56.320;43.990;2023-02-21T05:39:11;97363.56;;;-8.49;59.39
74973;BME280;63529;56.320;43.990;2023-02-21T05:41:37;97364.53;;;-8.36;59.11
74973;BME280;63529;56.320;43.990;2023-02-21T05:44:04;97364.13;;;-8.27;58.96
74973;BME280;63529;56.320;43.990;2023-02-21T05:46:34;97357.91;;;-8.19;58.89
74973;BME280;63529;56.320;43.990;2023-02-21T05:49:01;97361.06;;;-8.10;58.63
74973;BME280;63529;56.320;43.990;2023-02-21T05:51:33;97356.88;;;-8.05;58.41
74973;BME280;63529;56.320;43.990;2023-02-21T05:54:00;97353.91;;;-8.02;58.33
74973;BME280;63529;56.320;43.990;2023-02-21T05:56:26;97356.63;;;-7.97;58.24
74973;BME280;63529;56.320;43.990;2023-02-21T05:58:52;97350.44;;;-7.89;58.16
74973;BME280;63529;56.320;43.990;2023-02-21T06:01:18;97353.97;;;-7.77;57.95
74973;BME280;63529;56.320;43.990;2023-02-21T06:03:44;97356.31;;;-7.62;57.90
74973;BME280;63529;56.320;43.990;2023-02-21T06:06:10;97348.22;;;-7.41;57.73
74973;BME280;63529;56.320;43.990;2023-02-21T06:08:46;97360.16;;;-7.08;57.68
74973;BME280;63529;56.320;43.990;2023-02-21T06:11:13;97359.13;;;-6.75;56.87
74973;BME280;63529;56.320;43.990;2023-02-21T06:13:40;97351.41;;;-6.39;56.45
74973;BME280;63529;56.320;43.990;2023-02-21T06:16:06;97354.81;;;-6.02;55.64
74973;BME280;63529;56.320;43.990;2023-02-21T06:18:32;97341.63;;;-5.40;55.02
74973;BME280;63529;56.320;43.990;2023-02-21T06:20:58;97346.63;;;-4.38;53.35
74973;BME280;63529;56.320;43.990;2023-02-21T06:23:23;97347.53;;;-3.40;51.83
74973;BME280;63529;56.320;43.990;2023-02-21T06:25:50;97344.09;;;-2.67;50.15
74973;BME280;63529;56.320;43.990;2023-02-21T06:28:16;97336.03;;;-1.83;49.17
74973;BME280;63529;56.320;43.990;2023-02-21T06:30:42;97335.13;;;-0.96;47.63
74973;BME280;63529;56.320;43.990;2023-02-21T06:33:08;97335.66;;;-0.19;46.36
74973;BME280;63529;56.320;43.990;2023-02-21T06:35:34;97336.97;;;0.41;45.32
74973;BME280;63529;56.320;43.990;2023-02-21T06:38:00;97343.28;;;0.45;44.62
74973;BME280;63529;56.320;43.990;2023-02-21T06:40:26;97344.22;;;0.13;44.29
74973;BME280;63529;56.320;43.990;2023-02-21T06:42:51;97339.16;;;-0.04;44.22
74973;BME280;63529;56.320;43.990;2023-02-21T06:45:17;97341.84;;;0.12;44.05
74973;BME280;63529;56.320;43.990;2023-02-21T06:47:46;97344.13;;;0.66;43.54
74973;BME280;63529;56.320;43.990;2023-02-21T06:50:13;97333.94;;;1.46;41.34
74973;BME280;63529;56.320;43.990;2023-02-21T06:52:40;97342.47;;;2.17;39.94
74973;BME280;63529;56.320;43.990;2023-02-21T06:55:06;97337.16;;;2.82;39.62
74973;BME280;63529;56.320;43.990;2023-02-21T06:57:32;97336.34;;;3.26;39.33
74973;BME280;63529;56.320;43.990;2023-02-21T06:59:58;97337.72;;;3.52;38.64
74973;BME280;63529;56.320;43.990;2023-02-21T07:02:24;97337.78;;;3.71;38.22
74973;BME280;63529;56.320;43.990;2023-02-21T07:04:50;97329.81;;;3.52;37.79
74973;BME280;63529;56.320;43.990;2023-02-21T07:07:16;97333.72;;;3.26;37.85
74973;BME280;63529;56.320;43.990;2023-02-21T07:09:42;97328.50;;;3.16;37.99
74973;BME280;63529;56.320;43.990;2023-02-21T07:12:08;97336.63;;;2.80;37.44
74973;BME280;63529;56.320;43.990;2023-02-21T07:14:34;97339.56;;;2.73;37.99
74973;BME280;63529;56.320;43.990;2023-02-21T07:17:00;97340.59;;;2.83;38.62
74973;BME280;63529;56.320;43.990;2023-02-21T07:19:26;97347.94;;;2.86;38.68
74973;BME280;63529;56.320;43.990;2023-02-21T07:21:52;97338.38;;;3.00;38.07
74973;BME280;63529;56.320;43.990;2023-02-21T07:24:18;97344.13;;;3.41;38.16
74973;BME280;63529;56.320;43.990;2023-02-21T07:26:43;97348.81;;;4.02;38.18
74973;BME280;63529;56.320;43.990;2023-02-21T07:29:09;97338.50;;;4.49;37.56
74973;BME280;63529;56.320;43.990;2023-02-21T07:31:35;97340.31;;;4.53;36.49
74973;BME280;63529;56.320;43.990;2023-02-21T07:34:01;97334.22;;;4.34;36.87
74973;BME280;63529;56.320;43.990;2023-02-21T07:36:27;97335.88;;;4.49;37.00
74973;BME280;63529;56.320;43.990;2023-02-21T07:38:53;97341.31;;;4.95;35.98
74973;BME280;63529;56.320;43.990;2023-02-21T07:41:19;97337.84;;;5.32;35.67
74973;BME280;63529;56.320;43.990;2023-02-21T07:43:45;97328.94;;;5.61;35.64
74973;BME280;63529;56.320;43.990;2023-02-21T07:46:13;97333.03;;;5.99;34.96
74973;BME280;63529;56.320;43.990;2023-02-21T07:48:39;97336.38;;;6.05;33.60
74973;BME280;63529;56.320;43.990;2023-02-21T07:51:09;97343.44;;;5.96;34.00
74973;BME280;63529;56.320;43.990;2023-02-21T07:53:35;97339.91;;;6.14;34.53
74973;BME280;63529;56.320;43.990;2023-02-21T07:56:02;97344.13;;;6.29;34.00
74973;BME280;63529;56.320;43.990;2023-02-21T07:58:29;97336.94;;;6.57;34.52
74973;BME280;63529;56.320;43.990;2023-02-21T08:00:54;97340.38;;;6.44;35.00
74973;BME280;63529;56.320;43.990;2023-02-21T08:03:21;97335.28;;;6.06;35.35
74973;BME280;63529;56.320;43.990;2023-02-21T08:05:47;97340.94;;;5.21;35.98
74973;BME280;63529;56.320;43.990;2023-02-21T08:08:14;97345.78;;;4.38;37.21
74973;BME280;63529;56.320;43.990;2023-02-21T08:10:41;97342.09;;;3.62;38.07
74973;BME280;63529;56.320;43.990;2023-02-21T08:13:07;97347.06;;;3.01;38.88
74973;BME280;63529;56.320;43.990;2023-02-21T08:15:33;97351.78;;;2.54;39.77
74973;BME280;63529;56.320;43.990;2023-02-21T08:17:59;97353.00;;;2.17;40.40
74973;BME280;63529;56.320;43.990;2023-02-21T08:20:25;97343.34;;;1.87;40.67
74973;BME280;63529;56.320;43.990;2023-02-21T08:22:51;97345.78;;;1.63;40.34
74973;BME280;63529;56.320;43.990;2023-02-21T08:25:17;97332.34;;;1.50;40.54
74973;BME280;63529;56.320;43.990;2023-02-21T08:27:43;97347.59;;;1.43;40.85
74973;BME280;63529;56.320;43.990;2023-02-21T08:30:15;97334.75;;;1.31;40.91
74973;BME280;63529;56.320;43.990;2023-02-21T08:32:41;97341.31;;;1.23;41.05
74973;BME280;63529;56.320;43.990;2023-02-21T08:35:12;97340.53;;;1.13;41.01
74973;BME280;63529;56.320;43.990;2023-02-21T08:37:38;97338.69;;;1.08;40.86
74973;BME280;63529;56.320;43.990;2023-02-21T08:40:10;97340.00;;;1.00;40.88
74973;BME280;63529;56.320;43.990;2023-02-21T08:42:36;97335.50;;;0.96;41.31
74973;BME280;63529;56.320;43.990;2023-02-21T08:45:02;97329.47;;;0.85;41.20
74973;BME280;63529;56.320;43.990;2023-02-21T08:47:29;97334.97;;;0.78;41.47
74973;BME280;63529;56.320;43.990;2023-02-21T08:49:55;97335.47;;;0.75;41.79
74973;BME280;63529;56.320;43.990;2023-02-21T08:52:21;97338.63;;;0.77;42.25
74973;BME280;63529;56.320;43.990;2023-02-21T08:54:47;97347.28;;;0.78;42.45
74973;BME280;63529;56.320;43.990;2023-02-21T08:57:13;97345.47;;;0.78;42.60
74973;BME280;63529;56.320;43.990;2023-02-21T08:59:42;97345.19;;;0.75;42.29
74973;BME280;63529;56.320;43.990;2023-02-21T09:02:15;97346.75;;;0.71;42.51
74973;BME280;63529;56.320;43.990;2023-02-21T09:04:41;97343.34;;;0.65;42.63
74973;BME280;63529;56.320;43.990;2023-02-21T09:07:07;97341.22;;;0.62;42.77
74973;BME280;63529;56.320;43.990;2023-02-21T09:09:36;97339.38;;;0.63;42.94
74973;BME280;63529;56.320;43.990;2023-02-21T09:12:02;97342.00;;;0.63;42.80
74973;BME280;63529;56.320;43.990;2023-02-21T09:14:40;97339.94;;;0.60;43.06
74973;BME280;63529;56.320;43.990;2023-02-21T09:17:09;97339.66;;;0.61;43.12
74973;BME280;63529;56.320;43.990;2023-02-21T09:19:35;97336.25;;;0.61;43.20
74973;BME280;63529;56.320;43.990;2023-02-21T09:22:02;97338.09;;;0.60;43.22
74973;BME280;63529;56.320;43.990;2023-02-21T09:24:31;97335.47;;;0.60;43.65
74973;BME280;63529;56.320;43.990;2023-02-21T09:26:58;97330.72;;;0.57;43.41
74973;BME280;63529;56.320;43.990;2023-02-21T09:29:28;97332.53;;;0.51;42.79
74973;BME280;63529;56.320;43.990;2023-02-21T09:31:55;97325.69;;;0.45;42.69
74973;BME280;63529;56.320;43.990;2023-02-21T09:34:21;97330.38;;;0.38;41.73
74973;BME280;63529;56.320;43.990;2023-02-21T09:36:48;97320.66;;;0.29;41.14
74973;BME280;63529;56.320;43.990;2023-02-21T09:39:16;97329.03;;;0.25;41.58
74973;BME280;63529;56.320;43.990;2023-02-21T09:41:42;97334.81;;;0.22;42.23
74973;BME280;63529;56.320;43.990;2023-02-21T09:44:13;97323.50;;;0.17;41.59
74973;BME280;63529;56.320;43.990;2023-02-21T09:46:43;97329.00;;;0.15;42.06
74973;BME280;63529;56.320;43.990;2023-02-21T09:51:50;97334.97;;;0.06;42.18
74973;BME280;63529;56.320;43.990;2023-02-21T09:57:05;97335.50;;;0.03;42.16
74973;BME280;63529;56.320;43.990;2023-02-21T09:59:35;97335.25;;;0.04;42.32
74973;BME280;63529;56.320;43.990;2023-02-21T10:07:42;97336.59;;;0.07;42.14
74973;BME280;63529;56.320;43.990;2023-02-21T10:10:22;97338.88;;;-0.02;42.13
74973;BME280;63529;56.320;43.990;2023-02-21T10:13:11;97336.22;;;-0.07;42.34
74973;BME280;63529;56.320;43.990;2023-02-21T10:15:47;97334.63;;;-0.18;42.27
74973;BME280;63529;56.320;43.990;2023-02-21T10:18:36;97334.50;;;-0.39;42.22
74973;BME280;63529;56.320;43.990;2023-02-21T10:21:11;97353.28;;;-0.52;42.57
74973;BME280;63529;56.320;43.990;2023-02-21T10:23:45;97340.06;;;-0.67;42.66
74973;BME280;63529;56.320;43.990;2023-02-21T10:26:18;97345.75;;;-0.75;42.86
74973;BME280;63529;56.320;43.990;2023-02-21T10:28:45;97345.13;;;-0.88;43.19
74973;BME280;63529;56.320;43.990;2023-02-21T10:31:18;97352.66;;;-0.96;43.64
74973;BME280;63529;56.320;43.990;2023-02-21T10:33:48;97360.66;;;-1.08;43.49
74973;BME280;63529;56.320;43.990;2023-02-21T10:36:19;97358.44;;;-1.21;44.07
74973;BME280;63529;56.320;43.990;2023-02-21T10:38:54;97360.47;;;-1.28;44.05
74973;BME280;63529;56.320;43.990;2023-02-21T10:41:23;97358.84;;;-1.34;44.30
74973;BME280;63529;56.320;43.990;2023-02-21T10:43:58;97359.88;;;-1.35;44.41
74973;BME280;63529;56.320;43.990;2023-02-21T10:46:33;97363.09;;;-1.28;44.60
74973;BME280;63529;56.320;43.990;2023-02-21T10:49:24;97360.53;;;-1.23;44.82
74973;BME280;63529;56.320;43.990;2023-02-21T10:52:11;97369.88;;;-1.27;44.52
74973;BME280;63529;56.320;43.990;2023-02-21T10:54:38;97367.94;;;-1.37;44.66
74973;BME280;63529;56.320;43.990;2023-02-21T10:57:09;97370.16;;;-1.51;44.97
74973;BME280;63529;56.320;43.990;2023-02-21T10:59:42;97373.22;;;-1.59;45.26
74973;BME280;63529;56.320;43.990;2023-02-21T11:02:25;97367.06;;;-1.70;45.45
74973;BME280;63529;56.320;43.990;2023-02-21T11:04:53;97377.41;;;-1.80;45.44
74973;BME280;63529;56.320;43.990;2023-02-21T11:07:20;97372.78;;;-1.95;45.21
74973;BME280;63529;56.320;43.990;2023-02-21T11:09:48;97371.84;;;-2.05;45.75
74973;BME280;63529;56.320;43.990;2023-02-21T11:12:26;97367.75;;;-2.18;46.21
74973;BME280;63529;56.320;43.990;2023-02-21T11:17:23;97380.19;;;-2.25;46.42
74973;BME280;63529;56.320;43.990;2023-02-21T11:19:56;97384.56;;;-2.31;46.41
74973;BME280;63529;56.320;43.990;2023-02-21T11:27:44;97379.75;;;-2.56;46.84
74973;BME280;63529;56.320;43.990;2023-02-21T11:30:18;97381.41;;;-2.66;47.06
74973;BME280;63529;56.320;43.990;2023-02-21T11:32:51;97378.88;;;-2.78;47.29
74973;BME280;63529;56.320;43.990;2023-02-21T11:37:52;97393.72;;;-2.95;47.58
74973;BME280;63529;56.320;43.990;2023-02-21T11:43:25;97394.16;;;-3.15;48.17
74973;BME280;63529;56.320;43.990;2023-02-21T11:51:38;97391.13;;;-3.24;48.55
74973;BME280;63529;56.320;43.990;2023-02-21T11:54:04;97391.59;;;-3.27;48.81
74973;BME280;63529;56.320;43.990;2023-02-21T11:56:50;97392.31;;;-3.32;48.88
74973;BME280;63529;56.320;43.990;2023-02-21T11:59:23;97398.22;;;-3.36;49.11
74973;BME280;63529;56.320;43.990;2023-02-21T12:07:17;97396.66;;;-3.49;49.70
74973;BME280;63529;56.320;43.990;2023-02-21T12:10:00;97396.56;;;-3.54;49.89
74973;BME280;63529;56.320;43.990;2023-02-21T12:15:25;97395.09;;;-3.62;50.06
74973;BME280;63529;56.320;43.990;2023-02-21T12:23:48;97405.13;;;-3.82;50.74
74973;BME280;63529;56.320;43.990;2023-02-21T12:26:50;97411.25;;;-3.88;51.08
74973;BME280;63529;56.320;43.990;2023-02-21T12:32:16;97412.63;;;-3.97;51.28
74973;BME280;63529;56.320;43.990;2023-02-21T12:43:17;97413.09;;;-4.24;51.53
74973;BME280;63529;56.320;43.990;2023-02-21T12:46:02;97428.00;;;-4.31;51.78
74973;BME280;63529;56.320;43.990;2023-02-21T12:48:45;97431.88;;;-4.33;51.98
74973;BME280;63529;56.320;43.990;2023-02-21T12:51:20;97434.59;;;-4.40;52.20
74973;BME280;63529;56.320;43.990;2023-02-21T12:53:52;97438.22;;;-4.41;52.40
74973;BME280;63529;56.320;43.990;2023-02-21T12:56:53;97440.25;;;-4.43;52.71
74973;BME280;63529;56.320;43.990;2023-02-21T13:02:10;97431.16;;;-4.52;52.86
74973;BME280;63529;56.320;43.990;2023-02-21T13:04:46;97441.47;;;-4.57;53.25
74973;BME280;63529;56.320;43.990;2023-02-21T13:07:35;97441.56;;;-4.64;53.13
74973;BME280;63529;56.320;43.990;2023-02-21T13:10:17;97442.69;;;-4.72;53.45
74973;BME280;63529;56.320;43.990;2023-02-21T13:15:33;97452.84;;;-4.82;53.78
74973;BME280;63529;56.320;43.990;2023-02-21T13:18:22;97454.75;;;-4.89;54.14
74973;BME280;63529;56.320;43.990;2023-02-21T13:20:59;97451.41;;;-4.96;54.10
74973;BME280;63529;56.320;43.990;2023-02-21T13:27:00;97457.03;;;-5.11;54.57
74973;BME280;63529;56.320;43.990;2023-02-21T13:29:34;97455.53;;;-5.19;54.79
74973;BME280;63529;56.320;43.990;2023-02-21T13:32:12;97458.63;;;-5.28;54.91
74973;BME280;63529;56.320;43.990;2023-02-21T13:34:47;97460.31;;;-5.34;55.29
74973;BME280;63529;56.320;43.990;2023-02-21T13:37:24;97461.75;;;-5.38;55.21
74973;BME280;63529;56.320;43.990;2023-02-21T13:39:54;97465.81;;;-5.42;55.45
74973;BME280;63529;56.320;43.990;2023-02-21T13:42:24;97468.84;;;-5.45;55.56
74973;BME280;63529;56.320;43.990;2023-02-21T13:47:21;97468.13;;;-5.52;55.94
74973;BME280;63529;56.320;43.990;2023-02-21T13:49:51;97472.16;;;-5.56;56.39
74973;BME280;63529;56.320;43.990;2023-02-21T13:57:44;97472.94;;;-5.74;56.42
74973;BME280;63529;56.320;43.990;2023-02-21T14:10:58;97498.28;;;-6.06;57.46
74973;BME280;63529;56.320;43.990;2023-02-21T14:13:33;97498.69;;;-6.09;57.61
74973;BME280;63529;56.320;43.990;2023-02-21T14:18:39;97487.56;;;-6.16;57.99
74973;BME280;63529;56.320;43.990;2023-02-21T14:26:37;97504.41;;;-6.25;58.28
74973;BME280;63529;56.320;43.990;2023-02-21T14:31:52;97513.84;;;-6.31;58.61
74973;BME280;63529;56.320;43.990;2023-02-21T14:39:55;97517.09;;;-6.42;58.99
74973;BME280;63529;56.320;43.990;2023-02-21T15:01:38;97534.22;;;-6.35;59.85
74973;BME280;63529;56.320;43.990;2023-02-21T15:07:16;97541.59;;;-6.32;60.10
74973;BME280;63529;56.320;43.990;2023-02-21T15:09:45;97535.41;;;-6.31;60.11
74973;BME280;63529;56.320;43.990;2023-02-21T15:12:28;97543.19;;;-6.31;60.12
74973;BME280;63529;56.320;43.990;2023-02-21T15:14:54;97543.19;;;-6.31;59.91
74973;BME280;63529;56.320;43.990;2023-02-21T15:17:22;97543.75;;;-6.29;60.15
74973;BME280;63529;56.320;43.990;2023-02-21T15:20:05;97542.97;;;-6.29;60.23
74973;BME280;63529;56.320;43.990;2023-02-21T15:22:34;97546.13;;;-6.27;60.58
74973;BME280;63529;56.320;43.990;2023-02-21T15:30:19;97548.56;;;-6.25;60.44
74973;BME280;63529;56.320;43.990;2023-02-21T15:33:14;97554.72;;;-6.26;60.22
74973;BME280;63529;56.320;43.990;2023-02-21T15:35:50;97558.53;;;-6.29;60.38
74973;BME280;63529;56.320;43.990;2023-02-21T15:41:31;97564.34;;;-6.34;60.61
74973;BME280;63529;56.320;43.990;2023-02-21T15:44:07;97567.75;;;-6.33;60.78
74973;BME280;63529;56.320;43.990;2023-02-21T15:46:47;97565.56;;;-6.36;60.74
74973;BME280;63529;56.320;43.990;2023-02-21T15:49:21;97564.78;;;-6.37;60.84
74973;BME280;63529;56.320;43.990;2023-02-21T15:51:49;97574.38;;;-6.37;60.64
74973;BME280;63529;56.320;43.990;2023-02-21T15:54:34;97574.59;;;-6.39;60.81
74973;BME280;63529;56.320;43.990;2023-02-21T15:59:31;97580.19;;;-6.42;61.09
74973;BME280;63529;56.320;43.990;2023-02-21T16:02:19;97579.38;;;-6.42;60.95
74973;BME280;63529;56.320;43.990;2023-02-21T16:04:48;97580.00;;;-6.47;61.00
74973;BME280;63529;56.320;43.990;2023-02-21T16:09:58;97589.97;;;-6.44;61.21
74973;BME280;63529;56.320;43.990;2023-02-21T16:12:37;97587.38;;;-6.44;61.13